Time;durP1;ratioP1;P1;durP2;ratioP2;P2;SDS_P1;SDS_P2;PMS_P1;PMS_P2;Temp;Humidity;BMP_temperature;BMP_pressure;BME280_temperature;BME280_humidity;BME280_pressure;Samples;Min_cycle;Max_cycle;Signal;HPM_P1;HPM_P2
2021/10/18 00:01:09;;;;;;;;;87.00;84.50;15.70;49.80;;;;;;4861950;29;8804;-59
2021/10/18 00:03:34;;;;;;;;;85.00;82.25;15.70;49.90;;;;;;4862490;29;9506;-59
2021/10/18 00:06:00;;;;;;;;;85.00;80.75;15.80;50.10;;;;;;4862057;29;8829;-59
2021/10/18 00:08:26;;;;;;;;;86.75;84.00;15.70;50.10;;;;;;4862120;29;8876;-60
2021/10/18 00:10:52;;;;;;;;;83.75;76.75;15.70;50.40;;;;;;4862231;29;8805;-59
2021/10/18 00:13:18;;;;;;;;;91.00;90.25;15.70;50.10;;;;;;4862144;29;8816;-59
2021/10/18 00:15:44;;;;;;;;;86.75;83.75;15.70;50.10;;;;;;4862069;29;8811;-61
2021/10/18 00:18:10;;;;;;;;;89.00;86.00;15.70;49.90;;;;;;4861989;29;8809;-59
2021/10/18 00:20:36;;;;;;;;;88.75;88.25;15.70;49.90;;;;;;4862082;29;8873;-60
2021/10/18 00:23:03;;;;;;;;;88.50;86.00;15.60;49.90;;;;;;4861890;29;9556;-60
2021/10/18 00:25:29;;;;;;;;;96.25;95.50;15.60;50.00;;;;;;4861932;29;8829;-60
2021/10/18 00:27:54;;;;;;;;;101.00;98.75;15.60;49.70;;;;;;4861829;29;8790;-60
2021/10/18 00:30:20;;;;;;;;;98.50;97.25;15.60;49.60;;;;;;4862185;29;8817;-60
2021/10/18 00:32:46;;;;;;;;;98.50;97.00;15.60;49.50;;;;;;4861849;29;8789;-60
2021/10/18 00:35:12;;;;;;;;;95.75;95.00;15.60;49.10;;;;;;4862149;29;8805;-59
2021/10/18 00:37:39;;;;;;;;;89.50;88.00;15.60;49.40;;;;;;4861860;29;8805;-61
2021/10/18 00:40:07;;;;;;;;;96.25;93.50;15.50;49.60;;;;;;4862063;29;8900;-59
2021/10/18 00:42:32;;;;;;;;;95.75;93.50;15.50;49.80;;;;;;4861989;29;8809;-60
2021/10/18 00:44:58;;;;;;;;;89.75;85.75;15.40;48.90;;;;;;4861656;29;9515;-60
2021/10/18 00:47:24;;;;;;;;;82.50;76.00;15.30;48.50;;;;;;4861748;29;8802;-60
2021/10/18 00:49:50;;;;;;;;;89.50;88.50;15.30;48.80;;;;;;4861772;29;8913;-60
2021/10/18 00:52:20;;;;;;;;;99.50;96.75;15.20;48.90;;;;;;4862001;29;8860;-59
2021/10/18 00:54:48;;;;;;;;;99.00;98.00;15.10;48.70;;;;;;4861858;29;8808;-59
2021/10/18 00:57:15;;;;;;;;;104.00;102.50;15.10;48.60;;;;;;4861660;29;8778;-59
2021/10/18 00:59:42;;;;;;;;;103.75;102.25;15.00;48.50;;;;;;4861819;29;8832;-59
2021/10/18 01:02:08;;;;;;;;;101.75;95.75;14.90;49.10;;;;;;4861661;29;8797;-59
2021/10/18 01:04:33;;;;;;;;;90.50;87.25;14.90;49.00;;;;;;4861608;29;8847;-60
2021/10/18 01:06:59;;;;;;;;;96.25;92.25;14.80;49.40;;;;;;4861537;29;9354;-59
2021/10/18 01:09:25;;;;;;;;;88.75;87.00;14.70;49.40;;;;;;4861508;29;8828;-60
2021/10/18 01:11:51;;;;;;;;;94.00;93.75;14.80;49.50;;;;;;4862204;29;8841;-60
2021/10/18 01:14:17;;;;;;;;;87.75;84.50;14.80;49.30;;;;;;4865197;29;8814;-61
2021/10/18 01:16:43;;;;;;;;;93.00;91.00;14.70;49.50;;;;;;4864916;29;8794;-59
2021/10/18 01:19:14;;;;;;;;;86.00;77.25;14.80;49.60;;;;;;4865194;29;8809;-61
2021/10/18 01:21:41;;;;;;;;;90.75;87.75;14.70;49.50;;;;;;4865103;29;8825;-59
2021/10/18 01:24:07;;;;;;;;;88.25;85.75;14.70;49.80;;;;;;4864878;29;8801;-61
2021/10/18 01:26:33;;;;;;;;;81.75;73.75;14.70;49.70;;;;;;4864840;29;9477;-59
2021/10/18 01:28:59;;;;;;;;;94.50;91.25;14.70;49.80;;;;;;4864809;29;8812;-59
2021/10/18 01:31:25;;;;;;;;;86.00;82.50;14.60;49.60;;;;;;4864667;29;8794;-59
2021/10/18 01:33:51;;;;;;;;;89.00;85.25;14.60;51.00;;;;;;4865019;29;8809;-59
2021/10/18 01:36:18;;;;;;;;;92.25;90.50;14.60;49.70;;;;;;4864681;29;8825;-59
2021/10/18 01:38:44;;;;;;;;;93.00;89.00;14.70;49.70;;;;;;4864521;29;8810;-61
2021/10/18 01:41:09;;;;;;;;;94.00;91.00;14.70;49.60;;;;;;4864649;29;8904;-59
2021/10/18 01:43:35;;;;;;;;;91.00;89.75;14.70;49.30;;;;;;4864838;29;8928;-60
2021/10/18 01:46:01;;;;;;;;;86.50;80.00;14.80;49.30;;;;;;4864771;29;9488;-59
2021/10/18 01:48:27;;;;;;;;;96.25;92.25;14.80;49.10;;;;;;4864578;29;8797;-59
2021/10/18 01:50:53;;;;;;;;;92.00;88.50;14.80;49.20;;;;;;4864614;29;8805;-59
2021/10/18 01:53:19;;;;;;;;;79.00;59.75;14.80;49.20;;;;;;4864385;29;9575;-59
2021/10/18 01:55:45;;;;;;;;;89.50;88.50;14.70;49.30;;;;;;4864697;29;8802;-58
2021/10/18 01:58:11;;;;;;;;;92.50;91.00;14.80;49.30;;;;;;4864392;29;8782;-59
2021/10/18 02:00:39;;;;;;;;;88.00;85.50;14.80;49.20;;;;;;4864050;29;8828;-59
2021/10/18 02:03:04;;;;;;;;;100.75;99.25;14.70;49.30;;;;;;4864476;29;8801;-60
2021/10/18 02:05:30;;;;;;;;;103.25;100.50;14.70;49.10;;;;;;4864567;29;8834;-59
2021/10/18 02:07:56;;;;;;;;;102.25;102.00;14.70;49.70;;;;;;4864508;29;8818;-60
2021/10/18 02:10:22;;;;;;;;;106.75;105.50;14.70;48.80;;;;;;4864240;29;8920;-60
2021/10/18 02:12:48;;;;;;;;;95.75;95.75;14.60;48.50;;;;;;4863987;29;8833;-59
2021/10/18 02:15:14;;;;;;;;;99.00;97.50;14.60;48.40;;;;;;4864128;29;8900;-59
2021/10/18 02:17:41;;;;;;;;;98.25;98.00;14.60;48.50;;;;;;4864100;29;8790;-60
2021/10/18 02:20:10;;;;;;;;;107.25;104.50;14.60;48.80;;;;;;4864048;29;8782;-59
2021/10/18 02:22:36;;;;;;;;;94.50;93.00;14.50;48.80;;;;;;4863566;29;8908;-59
2021/10/18 02:25:02;;;;;;;;;108.50;106.25;14.30;50.00;;;;;;4863885;29;8833;-60
2021/10/18 02:27:28;;;;;;;;;91.75;90.50;14.30;50.00;;;;;;4863758;29;8808;-59
2021/10/18 02:29:54;;;;;;;;;109.50;105.00;14.30;49.70;;;;;;4864121;29;8790;-60
2021/10/18 02:32:20;;;;;;;;;110.75;105.75;14.30;49.90;;;;;;4863745;29;8802;-59
2021/10/18 02:34:46;;;;;;;;;108.00;104.75;14.40;49.90;;;;;;4863718;29;8825;-59
2021/10/18 02:37:11;;;;;;;;;108.25;105.75;14.30;49.90;;;;;;4863623;29;8809;-59
2021/10/18 02:39:37;;;;;;;;;106.50;104.75;14.30;49.70;;;;;;4863807;29;8836;-59
2021/10/18 02:42:03;;;;;;;;;112.75;107.50;14.30;49.90;;;;;;4863558;29;8823;-60
2021/10/18 02:44:29;;;;;;;;;104.75;102.50;14.20;49.90;;;;;;4863447;29;8821;-59
2021/10/18 02:46:55;;;;;;;;;105.00;102.75;14.20;50.00;;;;;;4863447;29;8790;-60
2021/10/18 02:49:21;;;;;;;;;90.25;86.25;14.30;49.80;;;;;;4863462;29;8805;-59
2021/10/18 02:51:48;;;;;;;;;106.00;105.25;14.30;50.00;;;;;;4863614;29;8837;-59
2021/10/18 02:54:15;;;;;;;;;109.25;103.50;14.20;50.20;;;;;;4863645;29;8911;-60
2021/10/18 02:56:41;;;;;;;;;101.50;97.75;14.20;50.30;;;;;;4863582;29;8789;-59
2021/10/18 02:59:07;;;;;;;;;84.00;73.25;14.30;50.00;;;;;;4863231;29;8841;-59
2021/10/18 03:01:33;;;;;;;;;86.25;75.75;14.20;50.50;;;;;;4863479;29;8793;-59
2021/10/18 03:03:59;;;;;;;;;84.75;75.75;14.10;50.70;;;;;;4863195;29;8801;-59
2021/10/18 03:06:25;;;;;;;;;85.50;77.75;14.10;50.50;;;;;;4863102;29;8857;-59
2021/10/18 03:08:52;;;;;;;;;80.25;68.75;14.10;50.50;;;;;;4863288;29;8781;-60
2021/10/18 03:11:19;;;;;;;;;79.00;68.00;14.10;50.20;;;;;;4863097;29;9511;-60
2021/10/18 03:13:46;;;;;;;;;76.25;63.00;14.20;50.40;;;;;;4863378;29;8805;-60
2021/10/18 03:16:11;;;;;;;;;81.00;71.25;14.20;50.30;;;;;;4863171;29;9476;-60
2021/10/18 03:18:38;;;;;;;;;82.00;71.75;14.20;50.50;;;;;;4862911;29;8789;-60
2021/10/18 03:21:04;;;;;;;;;81.50;73.75;14.20;50.60;;;;;;4862864;29;8847;-59
2021/10/18 03:23:30;;;;;;;;;87.75;81.75;14.20;50.50;;;;;;4863058;29;8801;-60
2021/10/18 03:25:56;;;;;;;;;85.25;77.25;14.20;50.30;;;;;;4863058;29;8889;-59
2021/10/18 03:28:22;;;;;;;;;86.25;78.75;14.20;49.90;;;;;;4862987;29;8824;-60
2021/10/18 03:30:48;;;;;;;;;86.25;79.00;14.20;49.80;;;;;;4862827;29;8885;-60
2021/10/18 03:33:14;;;;;;;;;85.75;80.00;14.10;49.70;;;;;;4862537;29;8809;-59
2021/10/18 03:35:41;;;;;;;;;82.75;73.75;14.10;50.20;;;;;;4861801;29;8838;-59
2021/10/18 03:38:07;;;;;;;;;85.50;76.50;14.00;50.40;;;;;;4862470;29;8806;-59
2021/10/18 03:40:32;;;;;;;;;86.25;79.75;14.00;50.40;;;;;;4862467;29;8900;-59
2021/10/18 03:42:58;;;;;;;;;82.25;72.75;13.90;50.80;;;;;;4862797;29;8816;-59
2021/10/18 03:45:24;;;;;;;;;83.50;74.25;13.90;50.80;;;;;;4862448;29;8817;-60
2021/10/18 03:47:50;;;;;;;;;80.25;68.00;13.90;51.00;;;;;;4862712;29;8789;-60
2021/10/18 03:50:16;;;;;;;;;89.00;84.00;13.90;51.00;;;;;;4862514;29;8816;-61
2021/10/18 03:52:42;;;;;;;;;80.50;67.50;13.90;51.10;;;;;;4863029;29;8838;-60
2021/10/18 03:55:08;;;;;;;;;83.50;74.75;13.90;51.10;;;;;;4862425;29;8932;-60
2021/10/18 03:57:35;;;;;;;;;87.25;80.75;14.00;50.70;;;;;;4862479;29;8900;-59
2021/10/18 04:00:01;;;;;;;;;90.25;85.50;13.90;50.20;;;;;;4862316;29;8785;-60
2021/10/18 04:02:27;;;;;;;;;85.75;77.50;14.00;49.80;;;;;;4862414;29;9490;-60
2021/10/18 04:04:53;;;;;;;;;101.00;97.75;13.90;50.70;;;;;;4862351;29;8865;-60
2021/10/18 04:07:19;;;;;;;;;93.50;90.75;13.90;49.30;;;;;;4862051;29;8806;-60
2021/10/18 04:09:46;;;;;;;;;92.75;91.75;13.80;49.20;;;;;;4862268;29;8801;-59
2021/10/18 04:12:12;;;;;;;;;84.50;71.50;13.90;49.40;;;;;;4861854;29;8841;-59
2021/10/18 04:14:38;;;;;;;;;74.00;60.00;13.90;50.10;;;;;;4862296;29;8821;-60
2021/10/18 04:17:04;;;;;;;;;69.25;57.25;13.90;50.40;;;;;;4862094;29;8929;-59
2021/10/18 04:19:30;;;;;;;;;73.25;59.50;13.90;50.70;;;;;;4862201;29;8798;-59
2021/10/18 04:21:55;;;;;;;;;71.75;59.75;13.90;50.90;;;;;;4861970;29;8822;-60
2021/10/18 04:24:21;;;;;;;;;76.00;63.25;13.80;50.80;;;;;;4861798;29;8801;-60
2021/10/18 04:26:47;;;;;;;;;73.00;60.00;13.60;51.20;;;;;;4861917;29;8836;-60
2021/10/18 04:29:13;;;;;;;;;76.50;64.50;13.70;51.60;;;;;;4861958;29;8818;-60
2021/10/18 04:31:39;;;;;;;;;85.00;75.25;13.70;51.60;;;;;;4861696;29;8816;-59
2021/10/18 04:34:05;;;;;;;;;75.00;61.50;13.60;52.70;;;;;;4862061;29;8864;-62
2021/10/18 04:36:31;;;;;;;;;84.00;74.25;13.50;52.70;;;;;;4862025;29;9469;-62
2021/10/18 04:38:57;;;;;;;;;79.75;68.00;13.50;51.40;;;;;;4861468;29;8802;-61
2021/10/18 04:41:23;;;;;;;;;87.50;83.00;13.50;51.50;;;;;;4861525;29;8801;-61
2021/10/18 04:43:49;;;;;;;;;87.00;79.75;13.50;51.20;;;;;;4860126;29;8801;-62
2021/10/18 04:46:15;;;;;;;;;88.75;81.75;13.70;51.00;;;;;;4862361;29;8805;-61
2021/10/18 04:48:41;;;;;;;;;91.50;83.50;13.60;50.80;;;;;;4864252;29;8888;-61
2021/10/18 04:51:07;;;;;;;;;84.75;76.75;13.70;50.30;;;;;;4864464;29;8967;-65
2021/10/18 04:53:33;;;;;;;;;82.50;67.75;13.60;50.40;;;;;;4864920;29;8832;-62
2021/10/18 04:59:21;;;;;;;;;83.00;72.25;13.70;50.50;;;;;;4865129;29;8777;-67
2021/10/18 05:01:47;;;;;;;;;73.25;61.00;13.50;50.70;;;;;;4864455;29;9479;-63
2021/10/18 05:04:12;;;;;;;;;74.75;61.25;13.50;50.70;;;;;;4864977;29;8824;-64
2021/10/18 05:06:38;;;;;;;;;73.50;60.25;13.50;50.80;;;;;;4865142;29;8789;-63
2021/10/18 05:09:04;;;;;;;;;83.00;70.00;13.50;50.90;;;;;;4865006;29;8797;-64
2021/10/18 05:11:30;;;;;;;;;79.50;67.50;13.50;51.00;;;;;;4864874;29;8844;-64
2021/10/18 05:13:56;;;;;;;;;84.00;75.75;13.60;50.80;;;;;;4865012;29;8876;-63
2021/10/18 05:16:21;;;;;;;;;87.50;78.25;13.60;50.60;;;;;;4864945;29;8833;-64
2021/10/18 05:18:47;;;;;;;;;86.75;79.75;13.70;50.50;;;;;;4865008;29;8801;-63
2021/10/18 05:21:13;;;;;;;;;87.50;81.00;13.70;50.40;;;;;;4864935;29;8845;-63
2021/10/18 05:23:39;;;;;;;;;86.25;78.75;13.80;50.50;;;;;;4864833;29;8816;-64
2021/10/18 05:26:05;;;;;;;;;82.00;72.50;13.80;50.30;;;;;;4864829;29;8881;-63
2021/10/18 05:28:30;;;;;;;;;82.50;71.75;13.80;50.50;;;;;;4864872;29;8786;-63
2021/10/18 05:30:56;;;;;;;;;84.25;77.25;13.70;50.60;;;;;;4864375;29;8809;-64
2021/10/18 05:33:22;;;;;;;;;80.75;68.50;13.80;50.70;;;;;;4864653;29;8909;-64
2021/10/18 05:35:48;;;;;;;;;80.50;69.00;13.70;50.60;;;;;;4864662;29;8833;-63
2021/10/18 05:38:21;;;;;;;;;80.50;69.75;13.60;50.90;;;;;;4864393;29;8809;-63
2021/10/18 05:40:47;;;;;;;;;83.75;77.25;13.60;51.20;;;;;;4864396;29;8817;-63
2021/10/18 05:43:14;;;;;;;;;85.25;79.25;13.70;51.40;;;;;;4864299;29;8804;-64
2021/10/18 05:45:40;;;;;;;;;81.75;73.00;13.80;51.00;;;;;;4864396;29;8889;-64
2021/10/18 05:48:06;;;;;;;;;87.00;79.50;14.00;50.60;;;;;;4864625;29;8785;-64
2021/10/18 05:50:35;;;;;;;;;79.75;67.75;14.00;50.50;;;;;;4864306;29;8885;-63
2021/10/18 05:53:01;;;;;;;;;82.00;70.25;14.00;50.20;;;;;;4864069;29;9476;-63
2021/10/18 05:55:27;;;;;;;;;75.00;61.00;13.90;50.20;;;;;;4864102;29;8829;-63
2021/10/18 05:57:56;;;;;;;;;74.50;61.50;13.90;50.20;;;;;;4863547;29;8810;-63
2021/10/18 06:00:23;;;;;;;;;79.00;67.50;13.90;50.80;;;;;;4863793;29;8797;-62
2021/10/18 06:02:50;;;;;;;;;82.00;71.50;14.10;50.50;;;;;;4864423;29;8797;-62
2021/10/18 06:05:17;;;;;;;;;81.00;71.25;14.00;50.60;;;;;;4864249;29;8801;-63
2021/10/18 06:07:43;;;;;;;;;89.00;84.75;13.70;50.80;;;;;;4864012;29;8793;-64
2021/10/18 06:10:11;;;;;;;;;106.00;101.75;13.70;51.40;;;;;;4864166;29;9464;-63
2021/10/18 06:12:37;;;;;;;;;118.50;115.00;13.90;51.00;;;;;;4863653;29;8844;-63
2021/10/18 06:15:05;;;;;;;;;111.25;105.75;14.00;50.80;;;;;;4864100;29;8805;-63
2021/10/18 06:17:31;;;;;;;;;117.75;116.00;14.10;50.40;;;;;;4864075;29;8805;-63
2021/10/18 06:19:57;;;;;;;;;122.50;119.00;14.00;50.70;;;;;;4863718;29;8832;-64
2021/10/18 06:22:24;;;;;;;;;109.75;107.75;13.90;50.80;;;;;;4864140;29;8912;-63
2021/10/18 06:24:51;;;;;;;;;125.00;122.50;14.00;50.80;;;;;;4863962;29;8825;-63
2021/10/18 06:27:18;;;;;;;;;122.50;120.50;14.10;50.40;;;;;;4863647;29;8793;-63
2021/10/18 06:29:45;;;;;;;;;108.75;107.00;14.00;50.80;;;;;;4863756;29;8789;-63
2021/10/18 06:32:11;;;;;;;;;106.25;103.75;14.00;50.60;;;;;;4863633;29;8891;-63
2021/10/18 06:34:37;;;;;;;;;95.50;93.75;14.00;50.80;;;;;;4863213;29;8988;-63
2021/10/18 06:37:02;;;;;;;;;88.50;81.00;14.20;51.10;;;;;;4863135;29;8809;-63
2021/10/18 06:39:28;;;;;;;;;79.50;69.25;14.30;50.50;;;;;;4863161;29;8809;-63
2021/10/18 06:41:54;;;;;;;;;86.50;80.50;14.40;50.60;;;;;;4862982;29;8802;-64
2021/10/18 06:44:20;;;;;;;;;87.75;84.00;14.60;50.20;;;;;;4863512;29;8851;-63
2021/10/18 06:46:46;;;;;;;;;99.25;96.50;14.70;49.80;;;;;;4863282;29;8957;-63
2021/10/18 06:49:12;;;;;;;;;91.50;90.25;14.70;49.70;;;;;;4862802;29;8920;-63
2021/10/18 06:51:45;;;;;;;;;96.00;96.00;14.80;49.60;;;;;;4863196;29;8841;-66
2021/10/18 06:54:13;;;;;;;;;85.25;81.75;14.90;49.80;;;;;;4863349;29;8797;-66
2021/10/18 06:56:44;;;;;;;;;87.50;81.00;15.00;49.60;;;;;;4863320;29;8847;-67
2021/10/18 06:59:14;;;;;;;;;87.75;79.00;15.10;49.40;;;;;;4862988;29;8828;-67
2021/10/18 07:01:40;;;;;;;;;90.25;85.50;15.10;49.30;;;;;;4862915;29;8797;-66
2021/10/18 07:04:06;;;;;;;;;88.50;85.00;15.00;49.60;;;;;;4863155;29;8802;-68
2021/10/18 07:06:33;;;;;;;;;96.25;95.00;15.10;49.70;;;;;;4862997;29;8832;-67
2021/10/18 07:08:59;;;;;;;;;109.00;107.75;15.20;50.20;;;;;;4862884;29;8786;-67
2021/10/18 07:11:26;;;;;;;;;124.25;115.50;15.30;49.80;;;;;;4862617;29;8964;-67
2021/10/18 07:13:54;;;;;;;;;107.00;107.00;15.30;50.00;;;;;;4863096;29;9482;-68
2021/10/18 07:16:20;;;;;;;;;116.00;113.50;15.30;50.10;;;;;;4862395;29;8825;-68
2021/10/18 07:18:46;;;;;;;;;95.50;94.00;15.30;49.90;;;;;;4862841;29;8874;-66
2021/10/18 07:21:12;;;;;;;;;81.50;72.50;15.30;50.10;;;;;;4862845;29;8828;-68
2021/10/18 07:23:38;;;;;;;;;82.75;76.00;15.30;51.00;;;;;;4862709;29;8809;-68
2021/10/18 07:26:05;;;;;;;;;81.75;71.75;15.30;50.90;;;;;;4862780;29;8904;-70
2021/10/18 07:28:31;;;;;;;;;89.75;81.50;15.30;51.00;;;;;;4862996;29;9511;-57
2021/10/18 07:30:59;;;;;;;;;82.25;75.50;15.40;51.30;;;;;;4862937;29;8934;-55
2021/10/18 07:33:25;;;;;;;;;82.75;75.50;15.40;51.60;;;;;;4862342;29;9471;-55
2021/10/18 07:35:51;;;;;;;;;83.50;75.00;15.50;51.70;;;;;;4862379;29;8821;-57
2021/10/18 07:38:19;;;;;;;;;81.00;73.25;15.60;51.30;;;;;;4862261;29;8916;-54
2021/10/18 07:40:45;;;;;;;;;81.50;70.50;15.50;52.20;;;;;;4862117;29;8797;-54
2021/10/18 07:43:11;;;;;;;;;80.50;68.00;15.50;52.10;;;;;;4862027;29;8869;-55
2021/10/18 07:45:37;;;;;;;;;81.00;70.00;15.70;51.90;;;;;;4862582;29;8806;-53
2021/10/18 07:48:04;;;;;;;;;78.50;67.00;15.80;52.00;;;;;;4862359;29;8915;-55
2021/10/18 07:50:30;;;;;;;;;78.00;67.00;15.80;51.70;;;;;;4862375;29;8797;-57
2021/10/18 07:52:55;;;;;;;;;78.00;68.25;15.90;52.40;;;;;;4862156;29;8817;-61
2021/10/18 07:55:21;;;;;;;;;77.25;66.50;16.00;53.20;;;;;;4862182;29;9500;-61
2021/10/18 07:57:50;;;;;;;;;72.25;59.25;16.00;53.10;;;;;;4862148;29;8828;-60
2021/10/18 08:00:17;;;;;;;;;75.25;60.75;16.10;53.60;;;;;;4862274;29;9457;-62
2021/10/18 08:02:43;;;;;;;;;72.75;59.00;16.10;53.40;;;;;;4862083;29;8785;-62
2021/10/18 08:05:15;;;;;;;;;74.75;64.50;16.30;53.20;;;;;;4862105;29;8781;-62
2021/10/18 08:07:42;;;;;;;;;70.50;56.75;16.50;52.90;;;;;;4862058;29;8800;-63
2021/10/18 08:10:09;;;;;;;;;72.25;60.00;16.50;52.90;;;;;;4861952;29;8805;-64
2021/10/18 08:12:36;;;;;;;;;78.50;65.25;16.70;53.50;;;;;;4861878;29;8825;-65
2021/10/18 08:15:03;;;;;;;;;70.75;58.75;16.80;53.30;;;;;;4861748;29;8828;-66
2021/10/18 08:17:29;;;;;;;;;70.50;57.75;16.90;52.70;;;;;;4862055;29;8797;-66
2021/10/18 08:19:55;;;;;;;;;68.25;56.25;17.00;51.80;;;;;;4861728;29;8785;-63
2021/10/18 08:22:21;;;;;;;;;66.00;54.75;16.90;51.30;;;;;;4861109;29;8825;-66
2021/10/18 08:24:47;;;;;;;;;70.50;56.75;17.00;51.20;;;;;;4861472;29;8860;-65
2021/10/18 08:27:13;;;;;;;;;67.75;56.00;17.10;50.70;;;;;;4861651;29;8901;-64
2021/10/18 08:29:38;;;;;;;;;65.00;53.00;17.20;50.90;;;;;;4861863;29;9480;-68
2021/10/18 08:32:05;;;;;;;;;67.25;56.00;17.20;50.80;;;;;;4861551;29;9456;-66
2021/10/18 08:34:31;;;;;;;;;68.75;57.00;17.30;50.80;;;;;;4861914;29;8804;-67
2021/10/18 08:36:56;;;;;;;;;67.00;55.00;17.30;51.00;;;;;;4861541;29;8805;-66
2021/10/18 08:42:12;;;;;;;;;64.75;53.25;17.50;50.60;;;;;;4861746;29;9417;-65
2021/10/18 08:44:38;;;;;;;;;67.25;55.25;17.60;50.20;;;;;;4861536;29;8833;-66
2021/10/18 08:47:04;;;;;;;;;66.50;54.00;17.60;49.40;;;;;;4861363;29;8805;-67
2021/10/18 08:49:30;;;;;;;;;64.25;53.50;17.70;49.40;;;;;;4861341;29;8802;-63
2021/10/18 08:51:57;;;;;;;;;66.00;54.75;17.70;49.30;;;;;;4861801;29;8833;-62
2021/10/18 08:54:23;;;;;;;;;67.25;55.50;17.90;49.00;;;;;;4861456;29;8798;-66
2021/10/18 08:56:49;;;;;;;;;67.00;55.00;18.00;49.00;;;;;;4861743;29;8821;-64
2021/10/18 08:59:19;;;;;;;;;66.25;55.00;18.10;49.00;;;;;;4861225;29;8801;-65
2021/10/18 09:01:48;;;;;;;;;65.75;54.00;18.20;48.30;;;;;;4861415;29;8857;-65
2021/10/18 09:04:27;;;;;;;;;65.50;53.50;18.20;47.80;;;;;;4861372;29;8837;-65
2021/10/18 09:07:12;;;;;;;;;62.75;52.00;18.30;47.10;;;;;;4861696;29;9461;-67
2021/10/18 09:09:49;;;;;;;;;64.25;52.75;18.50;46.60;;;;;;4861410;29;8988;-66
2021/10/18 09:12:27;;;;;;;;;63.50;52.25;18.50;46.80;;;;;;4861059;29;8840;-64
2021/10/18 09:14:57;;;;;;;;;64.00;52.50;18.70;46.20;;;;;;4861305;29;8901;-61
2021/10/18 09:17:34;;;;;;;;;64.00;53.50;18.70;46.10;;;;;;4861422;29;8899;-63
2021/10/18 09:20:32;;;;;;;;;63.75;53.00;18.90;45.50;;;;;;4861408;29;8841;-63
2021/10/18 09:23:23;;;;;;;;;61.00;51.75;19.00;44.60;;;;;;4861235;29;8836;-62
2021/10/18 09:25:50;;;;;;;;;64.50;53.75;19.10;43.80;;;;;;4861312;29;8801;-62
2021/10/18 09:28:22;;;;;;;;;59.25;49.25;19.30;44.00;;;;;;4861087;29;8903;-62
2021/10/18 09:30:48;;;;;;;;;60.00;49.00;19.40;43.90;;;;;;4861451;29;9457;-62
2021/10/18 09:33:37;;;;;;;;;61.75;51.00;19.50;44.00;;;;;;4862439;29;8825;-62
2021/10/18 09:36:05;;;;;;;;;56.25;47.50;19.50;44.00;;;;;;4864432;29;8829;-62
2021/10/18 09:38:31;;;;;;;;;60.25;49.75;19.60;43.70;;;;;;4864363;29;8805;-63
2021/10/18 09:41:00;;;;;;;;;60.00;49.50;19.70;43.40;;;;;;4863644;29;9213;-64
2021/10/18 09:43:43;;;;;;;;;54.00;46.00;19.70;43.30;;;;;;4863478;29;8782;-63
2021/10/18 09:46:36;;;;;;;;;54.00;45.25;19.80;42.30;;;;;;4864318;29;8893;-64
2021/10/18 10:54:09;;;;;;;;;32.33;32.33;28.40;25.30;;;;;;4863210;29;8781;-66
2021/10/18 10:56:49;;;;;;;;;26.00;26.00;28.70;24.30;;;;;;4862806;29;9485;-64
2021/10/18 11:01:58;;;;;;;;;25.00;25.00;29.70;23.60;;;;;;4863199;29;8774;-65
2021/10/18 11:04:33;;;;;;;;;29.33;29.33;30.00;23.70;;;;;;4863056;29;9487;-64
2021/10/18 11:07:09;;;;;;;;;33.33;32.33;30.50;22.90;;;;;;4863219;29;9178;-66
2021/10/18 11:09:38;;;;;;;;;31.33;31.33;30.80;22.60;;;;;;4863029;29;8789;-65
2021/10/18 11:12:06;;;;;;;;;33.33;31.67;30.80;22.40;;;;;;4862495;29;8857;-64
2021/10/18 11:14:32;;;;;;;;;32.67;31.67;31.00;22.60;;;;;;4862342;29;8919;-64
2021/10/18 11:16:58;;;;;;;;;31.33;31.33;31.20;21.80;;;;;;4862470;29;8851;-63
2021/10/18 11:19:24;;;;;;;;;35.00;33.00;31.40;22.30;;;;;;4862537;29;8810;-66
2021/10/18 11:21:58;;;;;;;;;29.67;29.67;31.60;21.90;;;;;;4862843;29;8853;-64
2021/10/18 11:24:37;;;;;;;;;18.00;18.00;31.90;20.50;;;;;;4862985;29;8805;-65
2021/10/18 11:27:03;;;;;;;;;19.33;19.33;32.10;20.80;;;;;;4862513;29;11748;-64
2021/10/18 11:29:32;;;;;;;;;22.67;22.67;32.40;20.20;;;;;;4862525;29;11656;-65
2021/10/18 11:32:09;;;;;;;;;19.00;19.00;32.70;20.30;;;;;;4862623;29;8821;-65
2021/10/18 11:34:36;;;;;;;;;21.33;21.33;32.90;19.70;;;;;;4861866;29;11653;-66
2021/10/18 11:37:03;;;;;;;;;24.67;24.67;33.00;19.80;;;;;;4861840;29;12327;-63
2021/10/18 11:39:33;;;;;;;;;25.00;25.00;33.20;19.60;;;;;;4862516;29;11671;-65
2021/10/18 11:42:17;;;;;;;;;25.00;25.00;33.40;19.80;;;;;;4862257;29;8838;-64
2021/10/18 11:44:52;;;;;;;;;33.67;32.00;33.50;19.50;;;;;;4862206;29;8884;-62
2021/10/18 11:47:37;;;;;;;;;27.33;27.33;33.60;19.80;;;;;;4860830;29;8912;-65
2021/10/18 11:50:17;;;;;;;;;27.67;27.67;33.90;20.00;;;;;;4861696;29;8813;-65
2021/10/18 11:52:52;;;;;;;;;27.33;27.33;34.10;19.80;;;;;;4861657;29;9040;-65
2021/10/18 11:55:26;;;;;;;;;25.67;25.67;34.10;19.40;;;;;;4860387;29;11755;-65
2021/10/18 11:57:53;;;;;;;;;27.00;27.00;34.20;18.90;;;;;;4861794;29;8798;-64
2021/10/18 12:00:25;;;;;;;;;31.33;31.33;34.30;19.50;;;;;;4861848;29;8809;-64
2021/10/18 12:02:52;;;;;;;;;27.00;27.00;34.30;18.60;;;;;;4862136;29;8797;-64
2021/10/18 12:05:18;;;;;;;;;27.67;27.67;34.20;19.20;;;;;;4862185;29;8881;-64
2021/10/18 12:07:51;;;;;;;;;25.00;25.00;34.40;19.40;;;;;;4862385;29;8797;-64
2021/10/18 12:10:26;;;;;;;;;25.33;25.33;34.50;17.90;;;;;;4861769;29;9651;-66
2021/10/18 12:13:15;;;;;;;;;26.33;26.33;34.20;18.10;;;;;;4861076;29;8864;-63
2021/10/18 12:16:08;;;;;;;;;27.67;27.67;32.70;18.70;;;;;;4861808;29;11651;-64
2021/10/18 12:18:48;;;;;;;;;29.00;29.00;32.60;18.90;;;;;;4862087;29;8821;-64
2021/10/18 12:21:21;;;;;;;;;27.00;27.00;32.90;19.00;;;;;;4862028;29;8809;-65
2021/10/18 12:24:14;;;;;;;;;29.67;29.67;33.20;18.70;;;;;;4862300;29;9476;-65
2021/10/18 12:26:45;;;;;;;;;26.33;26.33;33.60;19.30;;;;;;4859505;29;11635;-62
2021/10/18 12:29:13;;;;;;;;;26.00;26.00;33.90;18.50;;;;;;4861678;29;8786;-59
2021/10/18 12:31:49;;;;;;;;;31.00;31.00;34.30;18.20;;;;;;4861374;29;11649;-66
2021/10/18 12:34:22;;;;;;;;;24.00;24.00;34.70;18.90;;;;;;4861441;29;11641;-67
2021/10/18 12:36:55;;;;;;;;;25.00;25.00;35.20;18.10;;;;;;4861365;29;11738;-70
2021/10/18 12:39:53;;;;;;;;;25.00;25.00;35.50;17.70;;;;;;4861500;29;11644;-65
2021/10/18 12:42:25;;;;;;;;;24.00;24.00;35.80;17.90;;;;;;4848977;29;11633;-62
2021/10/18 12:45:13;;;;;;;;;21.00;21.00;36.00;17.80;;;;;;4861304;29;11634;-64
2021/10/18 12:47:47;;;;;;;;;22.25;22.25;36.10;17.30;;;;;;4861650;29;11651;-65
2021/10/18 12:50:18;;;;;;;;;22.75;22.75;36.10;16.70;;;;;;4861478;29;11656;-64
2021/10/18 12:53:01;;;;;;;;;19.50;19.50;36.10;16.90;;;;;;4861498;29;11681;-64
2021/10/18 12:55:33;;;;;;;;;18.50;18.50;36.30;16.60;;;;;;4861255;29;11664;-63
2021/10/18 12:58:04;;;;;;;;;19.50;19.50;35.80;16.40;;;;;;4861748;29;11646;-63
2021/10/18 13:00:33;;;;;;;;;21.25;21.25;35.20;17.20;;;;;;4861403;29;12295;-65
2021/10/18 13:03:18;;;;;;;;;20.00;20.00;34.50;17.90;;;;;;4861311;29;11678;-65
2021/10/18 13:05:51;;;;;;;;;22.00;22.00;33.70;18.10;;;;;;4861348;29;11652;-64
2021/10/18 13:08:22;;;;;;;;;26.33;26.33;33.00;18.70;;;;;;4864344;29;11643;-65
2021/10/18 13:10:51;;;;;;;;;26.00;26.00;32.50;18.80;;;;;;4863448;29;12314;-64
2021/10/18 13:13:19;;;;;;;;;22.67;22.67;32.20;19.00;;;;;;4864689;29;11679;-66
2021/10/18 13:15:49;;;;;;;;;28.67;28.67;32.40;19.10;;;;;;4864720;29;11680;-65
2021/10/18 13:18:16;;;;;;;;;24.67;24.33;32.60;19.00;;;;;;4864259;29;11827;-66
2021/10/18 13:20:43;;;;;;;;;24.67;24.67;32.80;18.90;;;;;;4864208;29;11655;-64
2021/10/18 13:23:10;;;;;;;;;25.00;25.00;32.60;19.40;;;;;;4864218;29;11656;-66
2021/10/18 13:25:42;;;;;;;;;26.00;26.00;32.20;19.00;;;;;;4864496;29;8849;-69
2021/10/18 13:28:09;;;;;;;;;28.00;28.00;32.00;19.10;;;;;;4864797;29;8817;-65
2021/10/18 13:30:37;;;;;;;;;22.67;22.67;31.80;19.20;;;;;;4864330;29;11647;-63
2021/10/18 13:33:04;;;;;;;;;30.33;30.00;31.80;19.60;;;;;;4864117;29;11625;-65
2021/10/18 13:35:31;;;;;;;;;25.67;25.67;31.80;19.30;;;;;;4863791;29;8880;-64
2021/10/18 13:37:57;;;;;;;;;23.00;23.00;31.90;19.70;;;;;;4864435;29;11641;-64
2021/10/18 13:40:26;;;;;;;;;22.00;22.00;31.90;19.60;;;;;;4863668;29;11652;-64
2021/10/18 13:42:53;;;;;;;;;27.33;27.33;31.60;19.60;;;;;;4863961;29;11679;-63
2021/10/18 13:45:21;;;;;;;;;26.67;26.67;31.30;19.50;;;;;;4863670;29;8816;-62
2021/10/18 13:47:48;;;;;;;;;22.00;22.00;30.90;19.80;;;;;;4863751;29;8858;-64
2021/10/18 13:50:15;;;;;;;;;23.00;23.00;30.40;19.70;;;;;;4863628;29;11733;-64
2021/10/18 13:52:41;;;;;;;;;22.00;22.00;30.00;20.70;;;;;;4863089;29;11651;-65